Time;durP1;ratioP1;P1;durP2;ratioP2;P2;SDS_P1;SDS_P2;PMS_P1;PMS_P2;Temp;Humidity;BMP_temperature;BMP_pressure;BME280_temperature;BME280_humidity;BME280_pressure;Samples;Min_cycle;Max_cycle;Signal;HPM_P1;HPM_P2
2023/06/21 00:01:38;;;;;;;13.15;7.78;;;;;;;-144.57;100.00;62443.72;4952814;29;20532;-60
2023/06/21 00:04:05;;;;;;;11.20;7.05;;;;;;;-144.57;100.00;62443.72;4954355;28;20055;-59
2023/06/21 00:06:34;;;;;;;10.15;6.88;;;;;;;-144.57;100.00;62443.72;4956619;29;20386;-60
2023/06/21 00:09:03;;;;;;;10.25;7.03;;;;;;;-144.57;100.00;62443.72;4939238;29;20051;-59
2023/06/21 00:11:29;;;;;;;14.85;7.70;;;;;;;-144.57;100.00;62443.72;4956566;29;20082;-58
2023/06/21 00:13:55;;;;;;;10.40;7.03;;;;;;;-144.57;100.00;62443.72;4956662;29;20066;-58
2023/06/21 00:16:21;;;;;;;11.63;7.43;;;;;;;-144.57;100.00;62443.72;4956158;29;20551;-59
2023/06/21 00:18:47;;;;;;;8.57;6.38;;;;;;;-144.57;100.00;62443.72;4956342;29;20058;-59
2023/06/21 00:21:13;;;;;;;13.38;7.45;;;;;;;-144.57;100.00;62443.72;4938940;29;20043;-59
2023/06/21 00:23:42;;;;;;;11.30;7.45;;;;;;;-144.57;100.00;62443.72;4956135;29;20517;-58
2023/06/21 00:26:08;;;;;;;10.80;7.45;;;;;;;-144.57;100.00;62443.72;4956274;29;20062;-60
2023/06/21 00:28:34;;;;;;;11.63;7.38;;;;;;;-144.57;100.00;62443.72;4956358;29;20051;-58
2023/06/21 00:30:59;;;;;;;15.02;7.40;;;;;;;-144.57;100.00;62443.72;4938764;29;20110;-58
2023/06/21 00:33:25;;;;;;;11.50;7.15;;;;;;;-144.57;100.00;62443.72;4956226;29;20051;-59
2023/06/21 00:35:51;;;;;;;13.20;7.20;;;;;;;-144.57;100.00;62443.72;4954650;29;20058;-58
2023/06/21 00:38:17;;;;;;;10.68;6.68;;;;;;;-144.57;100.00;62443.72;4954642;29;20043;-58
2023/06/21 00:40:43;;;;;;;10.18;6.68;;;;;;;-144.57;100.00;62443.72;4954661;29;20417;-60
2023/06/21 00:43:09;;;;;;;9.80;7.38;;;;;;;-144.57;100.00;62443.72;4955703;29;20444;-59
2023/06/21 00:45:40;;;;;;;10.70;6.75;;;;;;;-144.57;100.00;62443.72;4938730;29;20051;-59
2023/06/21 00:48:06;;;;;;;10.18;6.63;;;;;;;-144.57;100.00;62443.72;4954520;28;20043;-58
2023/06/21 00:50:32;;;;;;;10.75;6.43;;;;;;;-144.57;100.00;62443.72;4956027;29;20070;-59
2023/06/21 00:52:58;;;;;;;9.48;6.25;;;;;;;-144.57;100.00;62443.72;4955623;29;20541;-60
2023/06/21 00:55:23;;;;;;;10.65;6.85;;;;;;;-144.57;100.00;62443.72;4938523;29;20225;-59
2023/06/21 00:57:51;;;;;;;13.30;7.13;;;;;;;-144.57;100.00;62443.72;4954681;29;20043;-61
2023/06/21 01:00:21;;;;;;;8.73;6.38;;;;;;;-144.57;100.00;62443.72;4954402;29;20051;-60
2023/06/21 01:02:50;;;;;;;;;;;;;;;-144.57;100.00;62443.72;4938697;29;20524;-59
2023/06/21 01:05:17;;;;;;;9.02;6.75;;;;;;;-144.57;100.00;62443.72;4955782;29;20298;-59
2023/06/21 01:07:54;;;;;;;8.23;6.18;;;;;;;-144.57;100.00;62443.72;4954522;29;20133;-60
2023/06/21 01:10:27;;;;;;;6.93;6.18;;;;;;;-144.57;100.00;62443.72;4938292;29;20051;-59
2023/06/21 01:13:31;;;;;;;11.00;6.20;;;;;;;-144.57;100.00;62443.72;4938146;29;20126;-60
2023/06/21 01:16:16;;;;;;;10.82;6.15;;;;;;;-144.57;100.00;62443.72;4917829;29;20107;-59
2023/06/21 01:18:45;;;;;;;7.93;6.18;;;;;;;-144.57;100.00;62443.72;4937059;29;20051;-59
2023/06/21 01:21:18;;;;;;;8.27;5.68;;;;;;;-144.57;100.00;62443.72;4937909;29;20046;-59
2023/06/21 01:24:02;;;;;;;11.50;6.32;;;;;;;-144.57;100.00;62443.72;4953873;29;20043;-59
2023/06/21 01:26:52;;;;;;;8.20;6.43;;;;;;;-144.57;100.00;62443.72;4954988;29;20043;-59
2023/06/21 01:29:22;;;;;;;9.68;6.50;;;;;;;-144.57;100.00;62443.72;4955266;29;20047;-59
2023/06/21 01:31:50;;;;;;;7.00;5.93;;;;;;;-144.57;100.00;62443.72;4937778;29;20043;-59
2023/06/21 01:34:16;;;;;;;11.75;8.27;;;;;;;-144.57;100.00;62443.72;4937626;29;20055;-59
2023/06/21 01:36:43;;;;;;;10.18;7.88;;;;;;;-144.57;100.00;62443.72;4953622;29;20066;-60
2023/06/21 01:39:09;;;;;;;7.40;6.15;;;;;;;-144.57;100.00;62443.72;4921806;29;20560;-59
2023/06/21 01:41:36;;;;;;;8.45;5.85;;;;;;;-144.57;100.00;62443.72;4953605;29;20083;-60
2023/06/21 01:44:03;;;;;;;12.15;5.85;;;;;;;-144.57;100.00;62443.72;4954634;29;20063;-59
2023/06/21 01:46:29;;;;;;;6.95;5.35;;;;;;;-144.57;100.00;62443.72;4937377;29;20078;-61
2023/06/21 01:48:56;;;;;;;8.73;5.57;;;;;;;-144.57;100.00;62443.72;4954845;29;20473;-57
2023/06/21 01:51:23;;;;;;;8.27;5.90;;;;;;;-144.57;100.00;62443.72;4937287;29;20041;-60
2023/06/21 01:53:49;;;;;;;9.48;5.25;;;;;;;-144.57;100.00;62443.72;4937417;29;20556;-59
2023/06/21 01:56:18;;;;;;;8.25;5.85;;;;;;;-144.57;100.00;62443.72;4937174;29;20059;-58
2023/06/21 01:58:46;;;;;;;9.15;6.35;;;;;;;-144.57;100.00;62443.72;4937298;29;20074;-60
2023/06/21 02:01:13;;;;;;;11.40;6.57;;;;;;;-144.57;100.00;62443.72;4921616;29;20070;-60
2023/06/21 02:03:45;;;;;;;8.13;5.30;;;;;;;-144.57;100.00;62443.72;4937124;29;20051;-59
2023/06/21 02:06:11;;;;;;;7.03;5.40;;;;;;;-144.57;100.00;62443.72;4953066;29;20051;-60
2023/06/21 02:08:37;;;;;;;9.52;5.30;;;;;;;-144.57;100.00;62443.72;4937006;29;21073;-60
2023/06/21 02:11:03;;;;;;;11.93;5.85;;;;;;;-144.57;100.00;62443.72;4952881;29;20054;-59
2023/06/21 02:13:29;;;;;;;9.45;6.50;;;;;;;-144.57;100.00;62443.72;4937334;29;20054;-59
2023/06/21 02:15:55;;;;;;;8.75;6.32;;;;;;;-144.57;100.00;62443.72;4936822;29;20043;-59
2023/06/21 02:18:25;;;;;;;10.55;6.85;;;;;;;-144.57;100.00;62443.72;4954208;28;20039;-60
2023/06/21 02:20:52;;;;;;;10.23;6.80;;;;;;;-144.57;100.00;62443.72;4936621;29;20076;-59
2023/06/21 02:23:18;;;;;;;12.50;7.30;;;;;;;-144.57;100.00;62443.72;4952677;29;20098;-60
2023/06/21 02:25:44;;;;;;;9.60;6.22;;;;;;;-144.57;100.00;62443.72;4952918;29;20473;-59
2023/06/21 02:28:10;;;;;;;11.55;7.00;;;;;;;-144.57;100.00;62443.72;4936231;29;20043;-60
2023/06/21 02:30:36;;;;;;;10.50;8.07;;;;;;;-144.57;100.00;62443.72;4952722;29;20557;-59
2023/06/21 02:33:03;;;;;;;11.25;8.18;;;;;;;-144.57;100.00;62443.72;4954003;29;20039;-60
2023/06/21 02:35:29;;;;;;;10.40;7.50;;;;;;;-144.57;100.00;62443.72;4952280;28;20066;-59
2023/06/21 02:37:55;;;;;;;7.68;6.88;;;;;;;-144.57;100.00;62443.72;4953637;29;20043;-61
2023/06/21 02:40:21;;;;;;;9.75;6.50;;;;;;;-144.57;100.00;62443.72;4952398;29;20039;-60
2023/06/21 02:42:47;;;;;;;9.45;6.60;;;;;;;-144.57;100.00;62443.72;4949309;28;20056;-59
2023/06/21 02:45:12;;;;;;;8.52;6.53;;;;;;;-144.57;100.00;62443.72;4933244;29;20054;-59
2023/06/21 02:47:38;;;;;;;15.45;6.68;;;;;;;-144.57;100.00;62443.72;4934425;29;20080;-60
2023/06/21 02:50:04;;;;;;;8.93;6.43;;;;;;;-144.57;100.00;62443.72;4949019;29;20077;-59
2023/06/21 02:52:30;;;;;;;10.23;6.55;;;;;;;-144.57;100.00;62443.72;4949132;29;20047;-60
2023/06/21 02:54:57;;;;;;;9.98;6.28;;;;;;;-144.57;100.00;62443.72;4948818;29;20047;-60
2023/06/21 02:57:23;;;;;;;11.75;6.80;;;;;;;-144.57;100.00;62443.72;4948726;28;20079;-59
2023/06/21 02:59:49;;;;;;;11.20;7.20;;;;;;;-144.57;100.00;62443.72;4934619;29;20082;-62
2023/06/21 03:02:17;;;;;;;10.30;6.97;;;;;;;-144.57;100.00;62443.72;4933246;29;20043;-60
2023/06/21 03:04:43;;;;;;;12.52;6.95;;;;;;;-144.57;100.00;62443.72;4934469;29;20051;-59
2023/06/21 03:07:11;;;;;;;9.63;6.88;;;;;;;-144.57;100.00;62443.72;4934607;29;20438;-60
2023/06/21 03:09:36;;;;;;;8.82;6.68;;;;;;;-144.57;100.00;62443.72;4932599;29;20055;-60
2023/06/21 03:12:07;;;;;;;12.65;8.18;;;;;;;-144.57;100.00;62443.72;4932805;29;20040;-60
2023/06/21 03:14:37;;;;;;;10.32;7.70;;;;;;;-144.57;100.00;62443.72;4948958;29;20055;-59
2023/06/21 03:17:05;;;;;;;12.15;7.75;;;;;;;-144.57;100.00;62443.72;4934085;29;20048;-60
2023/06/21 03:19:32;;;;;;;8.30;6.60;;;;;;;-144.57;100.00;62443.72;4948786;29;20175;-59
2023/06/21 03:21:58;;;;;;;12.82;6.90;;;;;;;-144.57;100.00;62443.72;4948849;29;20043;-61
2023/06/21 03:24:26;;;;;;;11.05;6.78;;;;;;;-144.57;100.00;62443.72;4932732;29;20056;-59
2023/06/21 03:26:53;;;;;;;9.88;6.53;;;;;;;-144.57;100.00;62443.72;4948768;29;20050;-60
2023/06/21 03:29:19;;;;;;;9.77;6.70;;;;;;;-144.57;100.00;62443.72;4948607;29;20417;-61
2023/06/21 03:31:45;;;;;;;12.07;6.10;;;;;;;-144.57;100.00;62443.72;4932710;29;20044;-59
2023/06/21 03:34:12;;;;;;;11.23;7.10;;;;;;;-144.57;100.00;62443.72;4948415;29;20055;-60
2023/06/21 03:36:37;;;;;;;10.20;6.50;;;;;;;-144.57;100.00;62443.72;4948490;29;20048;-62
2023/06/21 03:39:04;;;;;;;8.38;7.47;;;;;;;-144.57;100.00;62443.72;4933728;29;20189;-59
2023/06/21 03:41:30;;;;;;;10.25;7.30;;;;;;;-144.57;100.00;62443.72;4936107;29;20075;-59
2023/06/21 03:43:56;;;;;;;10.85;5.78;;;;;;;-144.57;100.00;62443.72;4936315;29;20059;-60
2023/06/21 03:46:22;;;;;;;8.82;5.68;;;;;;;-144.57;100.00;62443.72;4951862;28;20058;-60
2023/06/21 03:48:53;;;;;;;10.45;5.72;;;;;;;-144.57;100.00;62443.72;4952053;28;20047;-59
2023/06/21 03:51:21;;;;;;;7.65;5.80;;;;;;;-144.57;100.00;62443.72;4951973;28;20469;-60
2023/06/21 03:53:48;;;;;;;9.80;6.57;;;;;;;-144.57;100.00;62443.72;4952012;29;20448;-60
2023/06/21 03:56:13;;;;;;;7.88;7.05;;;;;;;-144.57;100.00;62443.72;4952112;28;20282;-61
2023/06/21 03:58:41;;;;;;;9.85;7.57;;;;;;;-144.57;100.00;62443.72;4951874;28;20058;-60
2023/06/21 04:01:07;;;;;;;7.85;6.63;;;;;;;-144.57;100.00;62443.72;4935899;29;20047;-61
2023/06/21 04:03:33;;;;;;;10.60;6.25;;;;;;;-144.57;100.00;62443.72;4951642;29;20469;-60
2023/06/21 04:05:59;;;;;;;7.68;5.13;;;;;;;-144.57;100.00;62443.72;4935691;29;20082;-59
2023/06/21 04:08:25;;;;;;;7.72;6.00;;;;;;;-144.57;100.00;62443.72;4951582;29;20048;-59
2023/06/21 04:10:52;;;;;;;12.38;6.50;;;;;;;-144.57;100.00;62443.72;4951726;29;20514;-60
2023/06/21 04:13:17;;;;;;;9.27;5.55;;;;;;;-144.57;100.00;62443.72;4935648;29;20047;-61
2023/06/21 04:15:45;;;;;;;7.43;4.85;;;;;;;-144.57;100.00;62443.72;4951550;28;20052;-60
2023/06/21 04:18:10;;;;;;;10.02;5.40;;;;;;;-144.57;100.00;62443.72;4951692;28;20047;-61
2023/06/21 04:20:36;;;;;;;7.72;5.25;;;;;;;-144.57;100.00;62443.72;4936726;29;20404;-59
2023/06/21 04:23:02;;;;;;;8.05;5.00;;;;;;;-144.57;100.00;62443.72;4935554;29;20510;-61
2023/06/21 04:25:28;;;;;;;7.22;5.05;;;;;;;-144.57;100.00;62443.72;4937109;29;20039;-59
2023/06/21 04:27:54;;;;;;;5.43;4.35;;;;;;;-144.57;100.00;62443.72;4935501;29;20052;-61
2023/06/21 04:30:21;;;;;;;5.07;3.80;;;;;;;-144.57;100.00;62443.72;4937129;29;20486;-60
2023/06/21 04:32:47;;;;;;;7.82;4.40;;;;;;;-144.57;100.00;62443.72;4936539;29;20047;-59
2023/06/21 04:35:14;;;;;;;5.57;4.40;;;;;;;-144.57;100.00;62443.72;4936742;29;20051;-59
2023/06/21 04:37:44;;;;;;;6.55;4.10;;;;;;;-144.57;100.00;62443.72;4951212;29;20099;-60
2023/06/21 04:40:17;;;;;;;8.80;4.18;;;;;;;-144.57;100.00;62443.72;4936634;29;20063;-58
2023/06/21 04:42:43;;;;;;;7.25;4.10;;;;;;;-144.57;100.00;62443.72;4938809;29;20410;-60
2023/06/21 04:45:11;;;;;;;4.90;3.80;;;;;;;-144.57;100.00;62443.72;4955900;29;20062;-60
2023/06/21 04:47:37;;;;;;;4.53;3.83;;;;;;;-144.57;100.00;62443.72;4955542;29;20082;-61
2023/06/21 04:50:04;;;;;;;3.95;3.38;;;;;;;-144.57;100.00;62443.72;4955186;28;20047;-60
2023/06/21 04:52:29;;;;;;;6.22;3.78;;;;;;;-144.57;100.00;62443.72;4938474;29;20043;-60
2023/06/21 04:54:59;;;;;;;5.03;3.78;;;;;;;-144.57;100.00;62443.72;4955760;29;20503;-60
2023/06/21 04:57:25;;;;;;;5.30;3.50;;;;;;;-144.57;100.00;62443.72;4955350;29;20098;-60
2023/06/21 04:59:51;;;;;;;5.15;3.55;;;;;;;-144.57;100.00;62443.72;4938125;29;20054;-59
2023/06/21 05:02:17;;;;;;;4.93;3.90;;;;;;;-144.57;100.00;62443.72;4955412;29;20358;-60
2023/06/21 05:04:42;;;;;;;3.97;2.78;;;;;;;-144.57;100.00;62443.72;4938188;29;20162;-58
2023/06/21 05:07:08;;;;;;;3.70;2.60;;;;;;;-144.57;100.00;62443.72;4955178;29;20102;-59
2023/06/21 05:09:34;;;;;;;3.72;2.03;;;;;;;-144.57;100.00;62443.72;4955460;29;20101;-60
2023/06/21 05:11:59;;;;;;;2.88;2.10;;;;;;;-144.57;100.00;62443.72;4955041;29;20043;-61
2023/06/21 05:14:25;;;;;;;4.07;2.20;;;;;;;-144.57;100.00;62443.72;4954920;29;20118;-59
2023/06/21 05:16:51;;;;;;;3.75;2.30;;;;;;;-144.57;100.00;62443.72;4937969;29;20098;-61
2023/06/21 05:19:16;;;;;;;2.88;2.20;;;;;;;-144.57;100.00;62443.72;4955234;29;20134;-59
2023/06/21 05:21:44;;;;;;;3.50;2.33;;;;;;;-144.57;100.00;62443.72;4955123;29;20073;-61
2023/06/21 05:24:10;;;;;;;3.55;2.80;;;;;;;-144.57;100.00;62443.72;4954976;29;20043;-59
2023/06/21 05:26:35;;;;;;;3.55;2.33;;;;;;;-144.57;100.00;62443.72;4954054;29;20402;-60
2023/06/21 05:29:01;;;;;;;4.28;2.47;;;;;;;-144.57;100.00;62443.72;4954734;29;20055;-60
2023/06/21 05:31:28;;;;;;;4.35;2.40;;;;;;;-144.57;100.00;62443.72;4954711;29;20050;-62
2023/06/21 05:33:54;;;;;;;2.75;2.30;;;;;;;-144.57;100.00;62443.72;4937469;29;20047;-60
2023/06/21 05:36:20;;;;;;;3.28;2.60;;;;;;;-144.57;100.00;62443.72;4953390;29;20428;-59
2023/06/21 05:38:45;;;;;;;3.47;2.40;;;;;;;-144.57;100.00;62443.72;4954939;29;20054;-59
2023/06/21 05:41:11;;;;;;;3.45;2.40;;;;;;;-144.57;100.00;62443.72;4954704;29;20493;-60
2023/06/21 05:43:36;;;;;;;5.28;2.47;;;;;;;-144.57;100.00;62443.72;4953162;29;20094;-60
2023/06/21 05:46:02;;;;;;;6.70;2.30;;;;;;;-144.57;100.00;62443.72;4954521;29;20082;-60
2023/06/21 05:48:29;;;;;;;5.28;2.50;;;;;;;-144.57;100.00;62443.72;4937269;29;20094;-59
2023/06/21 05:50:55;;;;;;;5.85;2.45;;;;;;;-144.57;100.00;62443.72;4954765;29;20175;-60
2023/06/21 05:53:20;;;;;;;3.63;2.38;;;;;;;-144.57;100.00;62443.72;4954210;29;20538;-60
2023/06/21 05:55:46;;;;;;;2.63;2.40;;;;;;;-144.57;100.00;62443.72;4937035;29;20134;-60
2023/06/21 05:58:12;;;;;;;2.65;2.10;;;;;;;-144.57;100.00;62443.72;4937157;29;20437;-61
2023/06/21 06:00:38;;;;;;;5.70;2.58;;;;;;;-144.57;100.00;62443.72;4954556;28;20043;-60
2023/06/21 06:03:03;;;;;;;4.43;2.72;;;;;;;-144.57;100.00;62443.72;4936470;29;20163;-60
2023/06/21 06:05:29;;;;;;;3.45;2.42;;;;;;;-144.57;100.00;62443.72;4937198;29;20137;-60
2023/06/21 06:07:55;;;;;;;3.50;2.67;;;;;;;-144.57;100.00;62443.72;4937091;29;20039;-62
2023/06/21 06:10:21;;;;;;;4.40;2.70;;;;;;;-144.57;100.00;62443.72;4954277;29;20070;-59
2023/06/21 06:12:46;;;;;;;2.47;2.28;;;;;;;-144.57;100.00;62443.72;4936983;29;20393;-60
2023/06/21 06:15:12;;;;;;;4.78;2.25;;;;;;;-144.57;100.00;62443.72;4936628;29;20569;-58
2023/06/21 06:17:38;;;;;;;2.72;2.35;;;;;;;-144.57;100.00;62443.72;4954118;29;20039;-62
2023/06/21 06:20:06;;;;;;;3.33;2.53;;;;;;;-144.57;100.00;62443.72;4936705;29;20394;-61
2023/06/21 06:22:39;;;;;;;3.35;2.13;;;;;;;-144.57;100.00;62443.72;4953828;29;20051;-60
2023/06/21 06:25:05;;;;;;;3.90;2.47;;;;;;;-144.57;100.00;62443.72;4920742;29;20051;-58
2023/06/21 06:27:31;;;;;;;4.53;2.20;;;;;;;-144.57;100.00;62443.72;4954054;29;20421;-61
2023/06/21 06:29:57;;;;;;;2.42;2.08;;;;;;;-144.57;100.00;62443.72;4952687;29;20142;-59
2023/06/21 06:32:23;;;;;;;2.65;2.35;;;;;;;-144.57;100.00;62443.72;4954016;29;20117;-60
2023/06/21 06:34:49;;;;;;;3.38;2.08;;;;;;;-144.57;100.00;62443.72;4953864;29;20054;-60
2023/06/21 06:37:15;;;;;;;7.18;3.25;;;;;;;-144.57;100.00;62443.72;4953591;29;20055;-58
2023/06/21 06:39:40;;;;;;;3.38;2.20;;;;;;;-144.57;100.00;62443.72;4953758;29;20047;-60
2023/06/21 06:42:06;;;;;;;3.72;2.47;;;;;;;-144.57;100.00;62443.72;4952254;29;20085;-60
2023/06/21 06:44:32;;;;;;;5.28;2.20;;;;;;;-144.57;100.00;62443.72;4953661;28;20074;-58
2023/06/21 06:47:00;;;;;;;2.40;2.20;;;;;;;-144.57;100.00;62443.72;4953365;29;20040;-61
2023/06/21 06:49:26;;;;;;;2.45;2.20;;;;;;;-144.57;100.00;62443.72;4936364;29;20058;-61
2023/06/21 06:51:51;;;;;;;3.03;2.10;;;;;;;-144.57;100.00;62443.72;4952228;29;20043;-61
2023/06/21 06:54:17;;;;;;;3.35;2.45;;;;;;;-144.57;100.00;62443.72;4953356;29;20138;-61
2023/06/21 06:56:43;;;;;;;3.70;2.15;;;;;;;-144.57;100.00;62443.72;4936185;29;20093;-61
2023/06/21 06:59:09;;;;;;;2.95;2.40;;;;;;;-144.57;100.00;62443.72;4953346;29;20066;-60
2023/06/21 07:01:34;;;;;;;2.47;2.15;;;;;;;-144.57;100.00;62443.72;4953223;29;20050;-60
2023/06/21 07:04:00;;;;;;;2.80;2.10;;;;;;;-144.57;100.00;62443.72;4952039;29;20105;-59
2023/06/21 07:06:26;;;;;;;4.22;2.00;;;;;;;-144.57;100.00;62443.72;4935816;29;20413;-60
2023/06/21 07:08:52;;;;;;;2.92;2.20;;;;;;;-144.57;100.00;62443.72;4935857;29;20047;-60
2023/06/21 07:11:17;;;;;;;3.90;1.95;;;;;;;-144.57;100.00;62443.72;4952916;29;20130;-60
2023/06/21 07:13:43;;;;;;;3.00;2.10;;;;;;;-144.57;100.00;62443.72;4951759;29;20054;-60
2023/06/21 07:16:09;;;;;;;2.80;2.10;;;;;;;-144.57;100.00;62443.72;4953019;29;20576;-60
2023/06/21 07:18:34;;;;;;;4.15;2.28;;;;;;;-144.57;100.00;62443.72;4953073;29;20047;-59
2023/06/21 07:21:01;;;;;;;2.00;1.90;;;;;;;-144.57;100.00;62443.72;4952909;29;20058;-59
2023/06/21 07:23:29;;;;;;;2.58;2.38;;;;;;;-144.57;100.00;62443.72;4935768;29;20047;-58
2023/06/21 07:25:55;;;;;;;2.78;2.20;;;;;;;-144.57;100.00;62443.72;4953022;29;20190;-60
2023/06/21 07:28:21;;;;;;;2.22;2.00;;;;;;;-144.57;100.00;62443.72;4952941;29;20043;-60
2023/06/21 07:30:47;;;;;;;3.58;2.13;;;;;;;-144.57;100.00;62443.72;4935775;29;20550;-61
2023/06/21 07:33:12;;;;;;;2.58;2.25;;;;;;;-144.57;100.00;62443.72;4951637;29;20060;-62
2023/06/21 07:35:38;;;;;;;3.55;2.28;;;;;;;-144.57;100.00;62443.72;4935848;29;20047;-61
2023/06/21 07:38:05;;;;;;;4.38;2.50;;;;;;;-144.57;100.00;62443.72;4952904;29;20151;-62
2023/06/21 07:40:31;;;;;;;3.83;2.60;;;;;;;-144.57;100.00;62443.72;4953023;29;20080;-61
2023/06/21 07:42:57;;;;;;;2.83;2.38;;;;;;;-144.57;100.00;62443.72;4952715;29;20429;-61
2023/06/21 07:45:23;;;;;;;3.67;2.10;;;;;;;-144.57;100.00;62443.72;4953155;29;20150;-60
2023/06/21 07:47:48;;;;;;;4.45;2.55;;;;;;;-144.57;100.00;62443.72;4951493;29;20051;-61
2023/06/21 07:50:14;;;;;;;3.05;2.38;;;;;;;-144.57;100.00;62443.72;4953117;29;20043;-60
2023/06/21 07:52:40;;;;;;;4.28;2.03;;;;;;;-144.57;100.00;62443.72;4953066;29;20045;-60
2023/06/21 07:55:09;;;;;;;2.47;2.20;;;;;;;-144.57;100.00;62443.72;4952862;29;20643;-60
2023/06/21 07:57:34;;;;;;;5.50;2.53;;;;;;;-144.57;100.00;62443.72;4935718;29;20095;-61
2023/06/21 08:00:08;;;;;;;6.10;2.22;;;;;;;-144.57;100.00;62443.72;4952982;29;20139;-60
2023/06/21 08:02:39;;;;;;;3.83;2.25;;;;;;;-144.57;100.00;62443.72;4935600;29;20651;-60
2023/06/21 08:05:05;;;;;;;3.75;2.40;;;;;;;-144.57;100.00;62443.72;4951380;29;20095;-60
2023/06/21 08:07:31;;;;;;;4.72;2.50;;;;;;;-144.57;100.00;62443.72;4952471;29;20075;-60
2023/06/21 08:09:56;;;;;;;4.18;2.33;;;;;;;-144.57;100.00;62443.72;4952939;29;20043;-60
2023/06/21 08:12:22;;;;;;;3.03;2.20;;;;;;;-144.57;100.00;62443.72;4935758;29;20129;-62
2023/06/21 08:14:48;;;;;;;4.05;2.42;;;;;;;-144.57;100.00;62443.72;4952858;29;20043;-59
2023/06/21 08:17:14;;;;;;;2.88;2.03;;;;;;;-144.57;100.00;62443.72;4935342;29;20054;-62
2023/06/21 08:19:39;;;;;;;3.08;2.40;;;;;;;-144.57;100.00;62443.72;4952755;29;20039;-59
2023/06/21 08:22:05;;;;;;;4.10;2.20;;;;;;;-144.57;100.00;62443.72;4952496;29;20078;-60
2023/06/21 08:24:33;;;;;;;3.78;2.33;;;;;;;-144.57;100.00;62443.72;4935912;29;20043;-60
2023/06/21 08:26:59;;;;;;;2.47;2.28;;;;;;;-144.57;100.00;62443.72;4956363;29;20086;-60
2023/06/21 08:29:24;;;;;;;4.35;2.50;;;;;;;-144.57;100.00;62443.72;4956094;29;20051;-60
2023/06/21 08:31:50;;;;;;;4.32;2.25;;;;;;;-144.57;100.00;62443.72;4955898;29;20035;-61
2023/06/21 08:34:15;;;;;;;2.97;2.50;;;;;;;-144.57;100.00;62443.72;4956026;29;20079;-60
2023/06/21 08:36:42;;;;;;;4.38;2.35;;;;;;;-144.57;100.00;62443.72;4955975;29;20401;-62
2023/06/21 08:39:07;;;;;;;3.35;2.22;;;;;;;-144.57;100.00;62443.72;4955974;29;20481;-58
2023/06/21 08:41:35;;;;;;;2.55;2.25;;;;;;;-144.57;100.00;62443.72;4938625;29;20046;-60
2023/06/21 08:44:01;;;;;;;4.60;2.35;;;;;;;-144.57;100.00;62443.72;4922397;29;20086;-61
2023/06/21 08:46:27;;;;;;;3.50;2.50;;;;;;;-144.57;100.00;62443.72;4938161;29;20043;-62
2023/06/21 08:48:57;;;;;;;2.72;2.20;;;;;;;-144.57;100.00;62443.72;4955627;29;20061;-59
2023/06/21 08:51:22;;;;;;;2.50;2.30;;;;;;;-144.57;100.00;62443.72;4955503;29;20501;-60
2023/06/21 08:53:59;;;;;;;2.80;2.20;;;;;;;-144.57;100.00;62443.72;4954376;29;20090;-60
2023/06/21 08:56:26;;;;;;;3.30;2.20;;;;;;;-144.57;100.00;62443.72;4954397;29;20047;-60
2023/06/21 08:58:59;;;;;;;3.63;2.40;;;;;;;-144.57;100.00;62443.72;4938033;29;20086;-61
2023/06/21 09:01:28;;;;;;;4.68;3.13;;;;;;;-144.57;100.00;62443.72;4953948;29;20055;-61
2023/06/21 09:03:58;;;;;;;3.63;2.22;;;;;;;-144.57;100.00;62443.72;4955340;29;20528;-60
2023/06/21 09:06:25;;;;;;;6.38;2.60;;;;;;;-144.57;100.00;62443.72;4955510;29;20054;-61
2023/06/21 09:08:52;;;;;;;3.03;2.40;;;;;;;-144.57;100.00;62443.72;4955332;29;20043;-59
2023/06/21 09:11:19;;;;;;;3.90;2.30;;;;;;;-144.57;100.00;62443.72;4955136;29;20102;-61
2023/06/21 09:13:45;;;;;;;2.42;2.22;;;;;;;-144.57;100.00;62443.72;4955226;29;20044;-61
2023/06/21 09:16:12;;;;;;;4.97;2.50;;;;;;;-144.57;100.00;62443.72;4953971;29;20054;-61
2023/06/21 09:18:39;;;;;;;2.85;2.15;;;;;;;-144.57;100.00;62443.72;4937806;29;20074;-62
2023/06/21 09:21:08;;;;;;;4.57;2.53;;;;;;;-144.57;100.00;62443.72;4937655;29;20057;-59
2023/06/21 09:23:35;;;;;;;3.50;2.47;;;;;;;-144.57;100.00;62443.72;4955193;29;20106;-60
2023/06/21 09:26:02;;;;;;;5.90;2.20;;;;;;;-144.57;100.00;62443.72;4954809;29;20071;-60
2023/06/21 09:28:29;;;;;;;3.33;2.42;;;;;;;-144.57;100.00;62443.72;4953638;29;20568;-60
2023/06/21 09:30:55;;;;;;;3.97;2.30;;;;;;;-144.57;100.00;62443.72;4953754;29;20043;-60
2023/06/21 09:33:20;;;;;;;2.13;1.92;;;;;;;-144.57;100.00;62443.72;4953433;29;20051;-59
2023/06/21 09:35:46;;;;;;;3.50;2.63;;;;;;;-144.57;100.00;62443.72;4937149;29;20098;-58
2023/06/21 09:38:32;;;;;;;2.55;2.30;;;;;;;-144.57;100.00;62443.72;4953401;29;20563;-61
2023/06/21 09:40:58;;;;;;;3.85;2.38;;;;;;;-144.57;100.00;62443.72;4953447;29;20577;-61
2023/06/21 09:43:24;;;;;;;7.35;2.55;;;;;;;-144.57;100.00;62443.72;4933897;29;20060;-61
2023/06/21 09:46:03;;;;;;;5.25;2.20;;;;;;;-144.57;100.00;62443.72;4935432;29;20044;-61
2023/06/21 09:48:35;;;;;;;3.45;2.60;;;;;;;-144.57;100.00;62443.72;4935396;29;20054;-61
2023/06/21 09:51:05;;;;;;;3.58;2.38;;;;;;;-144.57;100.00;62443.72;4935301;29;20039;-61
2023/06/21 09:53:31;;;;;;;4.63;2.20;;;;;;;-144.57;100.00;62443.72;4935409;29;20062;-61
2023/06/21 09:55:59;;;;;;;3.88;2.72;;;;;;;-144.57;100.00;62443.72;4933958;29;20498;-61
2023/06/21 09:58:25;;;;;;;3.15;2.22;;;;;;;-144.57;100.00;62443.72;4935295;29;20051;-61
2023/06/21 10:00:51;;;;;;;3.88;2.55;;;;;;;-144.57;100.00;62443.72;4935223;29;20430;-61
2023/06/21 10:03:25;;;;;;;3.20;2.70;;;;;;;-144.57;100.00;62443.72;4949949;29;20050;-60
2023/06/21 10:05:58;;;;;;;5.05;2.50;;;;;;;-144.57;100.00;62443.72;4934709;29;20422;-59
2023/06/21 10:08:33;;;;;;;3.22;2.60;;;;;;;-144.57;100.00;62443.72;4933514;29;20042;-61
2023/06/21 10:11:01;;;;;;;4.15;2.70;;;;;;;-144.57;100.00;62443.72;4935222;28;20059;-61
2023/06/21 10:13:34;;;;;;;2.72;2.30;;;;;;;-144.57;100.00;62443.72;4949577;29;20649;-59
2023/06/21 10:16:01;;;;;;;3.80;2.33;;;;;;;-144.57;100.00;62443.72;4933480;29;20044;-61
2023/06/21 10:18:27;;;;;;;3.97;2.70;;;;;;;-144.57;100.00;62443.72;4934670;29;20461;-61
2023/06/21 10:20:56;;;;;;;2.70;2.40;;;;;;;-144.57;100.00;62443.72;4934728;29;20043;-59
2023/06/21 10:23:30;;;;;;;3.15;2.38;;;;;;;-144.57;100.00;62443.72;4934400;29;20052;-60
2023/06/21 10:25:59;;;;;;;2.97;2.50;;;;;;;-144.57;100.00;62443.72;4933446;29;20043;-60
2023/06/21 10:28:27;;;;;;;3.50;2.40;;;;;;;-144.57;100.00;62443.72;4917440;29;20044;-59
2023/06/21 10:30:56;;;;;;;3.88;2.40;;;;;;;-144.57;100.00;62443.72;4934531;29;20048;-60
2023/06/21 10:33:22;;;;;;;3.78;2.58;;;;;;;-144.57;100.00;62443.72;4934689;29;20035;-58
2023/06/21 10:35:48;;;;;;;4.93;2.70;;;;;;;-144.57;100.00;62443.72;4934215;29;20620;-58
2023/06/21 10:38:42;;;;;;;3.83;2.30;;;;;;;-144.57;100.00;62443.72;4949097;29;20142;-61
2023/06/21 10:41:08;;;;;;;3.67;2.60;;;;;;;-144.57;100.00;62443.72;4949189;29;20040;-60
2023/06/21 10:43:34;;;;;;;3.35;2.70;;;;;;;-144.57;100.00;62443.72;4936707;29;20587;-61
2023/06/21 10:46:00;;;;;;;4.07;2.28;;;;;;;-144.57;100.00;62443.72;4934215;29;20138;-60
2023/06/21 10:48:26;;;;;;;3.15;2.42;;;;;;;-144.57;100.00;62443.72;4932654;29;20122;-61
2023/06/21 10:50:52;;;;;;;3.83;2.50;;;;;;;-144.57;100.00;62443.72;4933168;29;20055;-61
2023/06/21 10:53:19;;;;;;;2.95;2.53;;;;;;;-144.57;100.00;62443.72;4934253;29;20075;-61
2023/06/21 10:55:46;;;;;;;3.20;2.50;;;;;;;-144.57;100.00;62443.72;4949053;29;20051;-60
2023/06/21 10:58:13;;;;;;;3.28;2.40;;;;;;;-144.57;100.00;62443.72;4934114;29;20526;-60
2023/06/21 11:00:41;;;;;;;3.10;2.53;;;;;;;-144.57;100.00;62443.72;4948829;28;20059;-60
2023/06/21 11:03:12;;;;;;;6.47;2.63;;;;;;;-144.57;100.00;62443.72;4948530;29;20047;-61
2023/06/21 11:05:39;;;;;;;3.85;2.67;;;;;;;-144.57;100.00;62443.72;4933708;29;20047;-60
2023/06/21 11:08:06;;;;;;;3.80;2.40;;;;;;;-144.57;100.00;62443.72;4932581;29;20464;-60